McCook, NE

9:18 AM CDT on March 29, 2015 (GMT -0500)
KNEMCCOO2 | | Change Station
CLOSE
Current Station
Personal Weather Station
Location: McCook, NE
Elevation: 2609 ft
Nearby Weather Stations

Elev 2609 ft 40.21 °N, 100.64 °W | Updated 3 minutes ago

Clear
Clear
54.1 °F
Feels Like 54.1 °F
N
12.7
Wind Variable Wind from East
Gusts 26.3 mph

Today
High -- | Low -- °F
--% Chance of Precip.
Yesterday
High -- | Low -- °F
Precip. -- in
7:31 AM 8:03 PM
Waxing Gibbous, 72% visible
Pressure 30.06 in
Visibility 10.0 miles
Clouds Clear
Dew Point 29 °F
Humidity 38%
Rainfall 0.00 in
Snow Depth Not available.
UV 1 out of 12
Pollen 8.30 out of 12
Air Quality Not available.
Flu Activity Not available.
METAR KMCK 291353Z AUTO 32022G29KT 10SM CLR 13/M05 A3009 RMK AO2 PK WND 32031/1312 SLP177 T01331050

More Conditions Fewer Conditions

Pressure 30.06 in
Visibility 10.0 miles
Clouds Clear
Dew Point 29 °F
Humidity 38%
Rainfall 0.00 in
Snow Depth Not available.
UV 1 out of 12
Pollen 8.30 out of 12
Air Quality Not available.
Flu Activity Not available.
METAR KMCK 291353Z AUTO 32022G29KT 10SM CLR 13/M05 A3009 RMK AO2 PK WND 32031/1312 SLP177 T01331050

More Conditions Fewer Conditions

10-Day Weather Forecast

Almanac

Astronomy

Mar. 29, 2015 Rise Set
Actual Time
Civil Twilight
Nautical Twilight
Astronomical Twilight
Moon
Length of Visible Light
Length of Day
Tomorrow will be .
, % of the Moon is Illuminated

Today's Extremes

State Highs State Lows

Community

WunderPhotos

Upload Photos

1,809,242 photos uploaded!

WunderBlogs® & News

Nearby

Air Quality

  Air Quality AQ Index Pollutant
Not available.

Snow Depth

Station Depth Elevation

Earthquake Activity

City Distance Mag. Time & Date
Minimum magnitude displayed is 2.5.

Coastal Water Temperatures

Place Temperature

Stations

Nearby Weather Stations

Station Location Temp. Windchill Dew Point Humidity Wind Precip. Elev Updated Type